sensor_id;sensor_type;location;lat;lon;timestamp;P1;durP1;ratioP1;P2;durP2;ratioP2
3819;SDS011;1925;51.356;9.530;2022-10-22T00:02:05;19.67;;;17.57;;
3819;SDS011;1925;51.356;9.530;2022-10-22T00:04:32;23.77;;;18.13;;
3819;SDS011;1925;51.356;9.530;2022-10-22T00:06:58;18.70;;;16.73;;
3819;SDS011;1925;51.356;9.530;2022-10-22T00:09:24;24.33;;;18.50;;
3819;SDS011;1925;51.356;9.530;2022-10-22T00:11:50;22.23;;;19.23;;
3819;SDS011;1925;51.356;9.530;2022-10-22T00:14:16;21.73;;;17.70;;
3819;SDS011;1925;51.356;9.530;2022-10-22T00:16:42;23.10;;;17.73;;
3819;SDS011;1925;51.356;9.530;2022-10-22T00:19:08;21.43;;;17.57;;
3819;SDS011;1925;51.356;9.530;2022-10-22T00:21:35;21.33;;;17.50;;
3819;SDS011;1925;51.356;9.530;2022-10-22T00:24:01;19.87;;;17.03;;
3819;SDS011;1925;51.356;9.530;2022-10-22T00:26:27;19.03;;;17.00;;
3819;SDS011;1925;51.356;9.530;2022-10-22T00:28:53;22.17;;;17.23;;
3819;SDS011;1925;51.356;9.530;2022-10-22T00:31:19;24.37;;;17.37;;
3819;SDS011;1925;51.356;9.530;2022-10-22T00:33:46;18.53;;;15.57;;
3819;SDS011;1925;51.356;9.530;2022-10-22T00:36:13;21.50;;;17.07;;
3819;SDS011;1925;51.356;9.530;2022-10-22T00:38:39;19.47;;;17.47;;
3819;SDS011;1925;51.356;9.530;2022-10-22T00:41:05;23.83;;;18.23;;
3819;SDS011;1925;51.356;9.530;2022-10-22T00:43:31;19.70;;;16.17;;
3819;SDS011;1925;51.356;9.530;2022-10-22T00:45:57;20.00;;;16.20;;
3819;SDS011;1925;51.356;9.530;2022-10-22T00:48:30;18.57;;;16.27;;
3819;SDS011;1925;51.356;9.530;2022-10-22T00:50:58;21.70;;;15.70;;
3819;SDS011;1925;51.356;9.530;2022-10-22T00:53:30;23.20;;;16.80;;
3819;SDS011;1925;51.356;9.530;2022-10-22T00:55:57;18.13;;;16.23;;
3819;SDS011;1925;51.356;9.530;2022-10-22T00:58:24;19.67;;;16.93;;
3819;SDS011;1925;51.356;9.530;2022-10-22T01:00:51;20.70;;;16.53;;
3819;SDS011;1925;51.356;9.530;2022-10-22T01:03:17;26.13;;;17.87;;
3819;SDS011;1925;51.356;9.530;2022-10-22T01:05:45;18.70;;;15.57;;
3819;SDS011;1925;51.356;9.530;2022-10-22T01:08:22;18.43;;;15.77;;
3819;SDS011;1925;51.356;9.530;2022-10-22T01:11:34;19.20;;;14.40;;
3819;SDS011;1925;51.356;9.530;2022-10-22T01:13:45;24.33;;;17.67;;
3819;SDS011;1925;51.356;9.530;2022-10-22T01:16:18;21.40;;;15.57;;
3819;SDS011;1925;51.356;9.530;2022-10-22T01:18:48;20.50;;;15.87;;
3819;SDS011;1925;51.356;9.530;2022-10-22T01:31:21;20.00;;;17.70;;
3819;SDS011;1925;51.356;9.530;2022-10-22T01:33:48;18.67;;;16.08;;
3819;SDS011;1925;51.356;9.530;2022-10-22T01:36:14;20.83;;;15.63;;
3819;SDS011;1925;51.356;9.530;2022-10-22T01:38:41;29.47;;;17.60;;
3819;SDS011;1925;51.356;9.530;2022-10-22T01:41:07;17.80;;;15.90;;
3819;SDS011;1925;51.356;9.530;2022-10-22T01:43:34;19.00;;;16.40;;
3819;SDS011;1925;51.356;9.530;2022-10-22T01:46:01;19.27;;;15.90;;
3819;SDS011;1925;51.356;9.530;2022-10-22T01:56:24;20.33;;;16.07;;
3819;SDS011;1925;51.356;9.530;2022-10-22T02:04:24;17.73;;;15.43;;
3819;SDS011;1925;51.356;9.530;2022-10-22T02:06:51;26.20;;;16.83;;
3819;SDS011;1925;51.356;9.530;2022-10-22T02:09:19;21.00;;;17.15;;
3819;SDS011;1925;51.356;9.530;2022-10-22T02:11:46;21.30;;;16.17;;
3819;SDS011;1925;51.356;9.530;2022-10-22T02:14:13;21.07;;;16.07;;
3819;SDS011;1925;51.356;9.530;2022-10-22T02:16:41;19.50;;;16.40;;
3819;SDS011;1925;51.356;9.530;2022-10-22T02:21:45;18.07;;;16.13;;
3819;SDS011;1925;51.356;9.530;2022-10-22T02:24:11;18.10;;;15.10;;
3819;SDS011;1925;51.356;9.530;2022-10-22T02:26:38;22.93;;;16.33;;
3819;SDS011;1925;51.356;9.530;2022-10-22T02:29:24;18.07;;;16.17;;
3819;SDS011;1925;51.356;9.530;2022-10-22T02:31:51;21.30;;;17.10;;
3819;SDS011;1925;51.356;9.530;2022-10-22T02:34:19;19.47;;;15.50;;
3819;SDS011;1925;51.356;9.530;2022-10-22T02:36:46;19.60;;;16.83;;
3819;SDS011;1925;51.356;9.530;2022-10-22T02:39:13;21.90;;;16.80;;
3819;SDS011;1925;51.356;9.530;2022-10-22T02:41:39;18.17;;;16.13;;
3819;SDS011;1925;51.356;9.530;2022-10-22T02:44:07;29.87;;;16.10;;
3819;SDS011;1925;51.356;9.530;2022-10-22T02:46:33;22.13;;;16.93;;
3819;SDS011;1925;51.356;9.530;2022-10-22T02:48:59;18.17;;;15.80;;
3819;SDS011;1925;51.356;9.530;2022-10-22T02:51:25;20.53;;;15.80;;
3819;SDS011;1925;51.356;9.530;2022-10-22T02:53:51;24.37;;;16.37;;
3819;SDS011;1925;51.356;9.530;2022-10-22T02:56:17;20.37;;;15.67;;
3819;SDS011;1925;51.356;9.530;2022-10-22T02:58:43;23.33;;;16.60;;
3819;SDS011;1925;51.356;9.530;2022-10-22T03:01:09;16.27;;;14.57;;
3819;SDS011;1925;51.356;9.530;2022-10-22T03:03:35;22.03;;;16.53;;
3819;SDS011;1925;51.356;9.530;2022-10-22T03:06:01;19.20;;;15.23;;
3819;SDS011;1925;51.356;9.530;2022-10-22T03:08:27;17.17;;;13.93;;
3819;SDS011;1925;51.356;9.530;2022-10-22T03:10:53;23.97;;;16.20;;
3819;SDS011;1925;51.356;9.530;2022-10-22T03:13:19;19.70;;;16.00;;
3819;SDS011;1925;51.356;9.530;2022-10-22T03:15:47;18.53;;;15.17;;
3819;SDS011;1925;51.356;9.530;2022-10-22T03:18:13;18.30;;;15.97;;
3819;SDS011;1925;51.356;9.530;2022-10-22T03:20:39;19.70;;;14.93;;
3819;SDS011;1925;51.356;9.530;2022-10-22T03:23:05;20.00;;;14.93;;
3819;SDS011;1925;51.356;9.530;2022-10-22T03:25:31;21.40;;;15.93;;
3819;SDS011;1925;51.356;9.530;2022-10-22T03:28:00;16.93;;;15.10;;
3819;SDS011;1925;51.356;9.530;2022-10-22T03:30:28;23.95;;;16.10;;
3819;SDS011;1925;51.356;9.530;2022-10-22T03:32:54;30.67;;;16.03;;
3819;SDS011;1925;51.356;9.530;2022-10-22T03:35:20;21.93;;;15.50;;
3819;SDS011;1925;51.356;9.530;2022-10-22T03:37:46;17.40;;;14.20;;
3819;SDS011;1925;51.356;9.530;2022-10-22T03:40:12;24.30;;;16.10;;
3819;SDS011;1925;51.356;9.530;2022-10-22T03:42:39;18.30;;;15.53;;
3819;SDS011;1925;51.356;9.530;2022-10-22T03:45:05;23.17;;;16.17;;
3819;SDS011;1925;51.356;9.530;2022-10-22T03:47:32;18.03;;;14.47;;
3819;SDS011;1925;51.356;9.530;2022-10-22T03:49:58;25.43;;;16.27;;
3819;SDS011;1925;51.356;9.530;2022-10-22T03:52:24;25.33;;;16.43;;
3819;SDS011;1925;51.356;9.530;2022-10-22T03:54:50;31.90;;;16.77;;
3819;SDS011;1925;51.356;9.530;2022-10-22T03:57:16;19.90;;;15.87;;
3819;SDS011;1925;51.356;9.530;2022-10-22T03:59:43;20.37;;;15.60;;
3819;SDS011;1925;51.356;9.530;2022-10-22T04:02:10;19.40;;;16.77;;
3819;SDS011;1925;51.356;9.530;2022-10-22T04:04:36;23.33;;;16.67;;
3819;SDS011;1925;51.356;9.530;2022-10-22T04:07:02;20.87;;;17.00;;
3819;SDS011;1925;51.356;9.530;2022-10-22T04:09:30;21.40;;;14.77;;
3819;SDS011;1925;51.356;9.530;2022-10-22T04:11:56;25.27;;;13.80;;
3819;SDS011;1925;51.356;9.530;2022-10-22T04:14:22;17.30;;;13.18;;
3819;SDS011;1925;51.356;9.530;2022-10-22T04:16:48;17.17;;;14.63;;
3819;SDS011;1925;51.356;9.530;2022-10-22T04:19:14;18.93;;;14.00;;
3819;SDS011;1925;51.356;9.530;2022-10-22T04:21:40;25.23;;;15.70;;
3819;SDS011;1925;51.356;9.530;2022-10-22T04:24:06;16.20;;;13.90;;
3819;SDS011;1925;51.356;9.530;2022-10-22T04:26:32;13.63;;;12.00;;
3819;SDS011;1925;51.356;9.530;2022-10-22T04:28:58;16.40;;;13.73;;
3819;SDS011;1925;51.356;9.530;2022-10-22T04:31:25;17.93;;;14.60;;
3819;SDS011;1925;51.356;9.530;2022-10-22T04:33:51;18.30;;;14.20;;
3819;SDS011;1925;51.356;9.530;2022-10-22T04:36:18;16.40;;;14.37;;
3819;SDS011;1925;51.356;9.530;2022-10-22T04:38:45;26.00;;;15.90;;
3819;SDS011;1925;51.356;9.530;2022-10-22T04:41:12;19.23;;;14.70;;
3819;SDS011;1925;51.356;9.530;2022-10-22T04:43:39;20.33;;;14.80;;
3819;SDS011;1925;51.356;9.530;2022-10-22T04:46:05;21.80;;;14.70;;
3819;SDS011;1925;51.356;9.530;2022-10-22T04:48:33;27.23;;;15.47;;
3819;SDS011;1925;51.356;9.530;2022-10-22T04:50:59;20.93;;;15.90;;
3819;SDS011;1925;51.356;9.530;2022-10-22T04:53:25;18.90;;;13.70;;
3819;SDS011;1925;51.356;9.530;2022-10-22T04:55:51;21.47;;;14.40;;
3819;SDS011;1925;51.356;9.530;2022-10-22T04:58:17;17.87;;;13.93;;
3819;SDS011;1925;51.356;9.530;2022-10-22T05:00:43;16.73;;;13.67;;
3819;SDS011;1925;51.356;9.530;2022-10-22T05:03:09;20.60;;;15.97;;
3819;SDS011;1925;51.356;9.530;2022-10-22T05:05:35;18.93;;;15.30;;
3819;SDS011;1925;51.356;9.530;2022-10-22T05:08:01;20.33;;;15.20;;
3819;SDS011;1925;51.356;9.530;2022-10-22T05:10:27;17.20;;;13.80;;
3819;SDS011;1925;51.356;9.530;2022-10-22T05:12:53;17.50;;;15.20;;
3819;SDS011;1925;51.356;9.530;2022-10-22T05:15:19;15.27;;;13.67;;
3819;SDS011;1925;51.356;9.530;2022-10-22T05:17:45;18.33;;;13.67;;
3819;SDS011;1925;51.356;9.530;2022-10-22T05:20:11;19.97;;;14.40;;
3819;SDS011;1925;51.356;9.530;2022-10-22T05:22:37;15.23;;;13.63;;
3819;SDS011;1925;51.356;9.530;2022-10-22T05:25:03;19.20;;;13.27;;
3819;SDS011;1925;51.356;9.530;2022-10-22T05:27:29;24.37;;;15.60;;
3819;SDS011;1925;51.356;9.530;2022-10-22T05:29:55;16.47;;;13.20;;
3819;SDS011;1925;51.356;9.530;2022-10-22T05:32:21;16.43;;;13.40;;
3819;SDS011;1925;51.356;9.530;2022-10-22T05:34:47;20.97;;;15.13;;
3819;SDS011;1925;51.356;9.530;2022-10-22T05:37:13;20.27;;;14.82;;
3819;SDS011;1925;51.356;9.530;2022-10-22T05:39:39;17.90;;;14.77;;
3819;SDS011;1925;51.356;9.530;2022-10-22T05:42:05;23.20;;;15.63;;
3819;SDS011;1925;51.356;9.530;2022-10-22T05:44:31;25.57;;;16.20;;
3819;SDS011;1925;51.356;9.530;2022-10-22T05:46:57;22.37;;;16.10;;
3819;SDS011;1925;51.356;9.530;2022-10-22T05:49:23;18.07;;;15.80;;
3819;SDS011;1925;51.356;9.530;2022-10-22T05:51:49;23.17;;;16.30;;
3819;SDS011;1925;51.356;9.530;2022-10-22T05:54:17;20.37;;;16.13;;
3819;SDS011;1925;51.356;9.530;2022-10-22T05:56:43;17.90;;;14.60;;
3819;SDS011;1925;51.356;9.530;2022-10-22T05:59:10;24.53;;;16.33;;
3819;SDS011;1925;51.356;9.530;2022-10-22T06:01:37;20.03;;;15.63;;
3819;SDS011;1925;51.356;9.530;2022-10-22T06:04:04;25.90;;;16.63;;
3819;SDS011;1925;51.356;9.530;2022-10-22T06:06:37;20.70;;;16.40;;
3819;SDS011;1925;51.356;9.530;2022-10-22T06:09:05;22.87;;;15.60;;
3819;SDS011;1925;51.356;9.530;2022-10-22T06:11:32;24.13;;;16.17;;
3819;SDS011;1925;51.356;9.530;2022-10-22T06:13:58;23.73;;;16.87;;
3819;SDS011;1925;51.356;9.530;2022-10-22T06:16:24;26.97;;;16.67;;
3819;SDS011;1925;51.356;9.530;2022-10-22T06:18:50;27.53;;;17.97;;
3819;SDS011;1925;51.356;9.530;2022-10-22T06:21:16;17.80;;;14.83;;
3819;SDS011;1925;51.356;9.530;2022-10-22T06:23:42;24.83;;;16.47;;
3819;SDS011;1925;51.356;9.530;2022-10-22T06:26:09;24.43;;;16.33;;
3819;SDS011;1925;51.356;9.530;2022-10-22T06:28:35;28.20;;;18.40;;
3819;SDS011;1925;51.356;9.530;2022-10-22T06:31:02;21.43;;;16.30;;
3819;SDS011;1925;51.356;9.530;2022-10-22T06:33:28;20.60;;;16.53;;
3819;SDS011;1925;51.356;9.530;2022-10-22T06:35:54;20.43;;;16.97;;
3819;SDS011;1925;51.356;9.530;2022-10-22T06:38:20;22.90;;;16.73;;
3819;SDS011;1925;51.356;9.530;2022-10-22T06:40:46;24.80;;;16.80;;
3819;SDS011;1925;51.356;9.530;2022-10-22T06:43:12;27.47;;;20.10;;
3819;SDS011;1925;51.356;9.530;2022-10-22T06:45:39;26.93;;;19.20;;
3819;SDS011;1925;51.356;9.530;2022-10-22T06:48:05;28.00;;;19.33;;
3819;SDS011;1925;51.356;9.530;2022-10-22T06:50:34;28.27;;;18.88;;
3819;SDS011;1925;51.356;9.530;2022-10-22T06:53:01;25.73;;;19.23;;
3819;SDS011;1925;51.356;9.530;2022-10-22T06:55:27;35.17;;;20.20;;
3819;SDS011;1925;51.356;9.530;2022-10-22T06:57:53;27.10;;;18.67;;
3819;SDS011;1925;51.356;9.530;2022-10-22T07:00:20;27.80;;;19.03;;
3819;SDS011;1925;51.356;9.530;2022-10-22T07:02:49;24.40;;;18.37;;
3819;SDS011;1925;51.356;9.530;2022-10-22T07:05:16;23.58;;;18.60;;
3819;SDS011;1925;51.356;9.530;2022-10-22T07:07:42;26.00;;;18.33;;
3819;SDS011;1925;51.356;9.530;2022-10-22T07:10:08;25.77;;;15.30;;
3819;SDS011;1925;51.356;9.530;2022-10-22T07:12:34;24.10;;;17.70;;
3819;SDS011;1925;51.356;9.530;2022-10-22T07:15:00;19.40;;;15.10;;
3819;SDS011;1925;51.356;9.530;2022-10-22T07:17:26;19.60;;;14.13;;
3819;SDS011;1925;51.356;9.530;2022-10-22T07:19:52;25.70;;;15.40;;
3819;SDS011;1925;51.356;9.530;2022-10-22T07:22:18;15.90;;;12.60;;
3819;SDS011;1925;51.356;9.530;2022-10-22T07:24:44;14.43;;;12.27;;
3819;SDS011;1925;51.356;9.530;2022-10-22T07:27:10;14.53;;;11.90;;
3819;SDS011;1925;51.356;9.530;2022-10-22T07:29:36;12.57;;;10.63;;
3819;SDS011;1925;51.356;9.530;2022-10-22T07:32:02;16.60;;;8.27;;
3819;SDS011;1925;51.356;9.530;2022-10-22T07:34:28;8.27;;;7.43;;
3819;SDS011;1925;51.356;9.530;2022-10-22T07:36:55;12.13;;;7.60;;
3819;SDS011;1925;51.356;9.530;2022-10-22T07:39:21;10.77;;;6.43;;
3819;SDS011;1925;51.356;9.530;2022-10-22T07:41:47;9.13;;;6.43;;
3819;SDS011;1925;51.356;9.530;2022-10-22T07:44:13;7.07;;;4.90;;
3819;SDS011;1925;51.356;9.530;2022-10-22T07:46:39;6.03;;;4.80;;
3819;SDS011;1925;51.356;9.530;2022-10-22T07:49:05;5.13;;;3.80;;
3819;SDS011;1925;51.356;9.530;2022-10-22T07:51:31;4.67;;;3.60;;
3819;SDS011;1925;51.356;9.530;2022-10-22T07:53:57;3.80;;;3.30;;
3819;SDS011;1925;51.356;9.530;2022-10-22T07:56:23;3.73;;;3.37;;
3819;SDS011;1925;51.356;9.530;2022-10-22T07:58:49;3.50;;;3.20;;
3819;SDS011;1925;51.356;9.530;2022-10-22T08:01:15;5.47;;;2.90;;
3819;SDS011;1925;51.356;9.530;2022-10-22T08:03:43;4.13;;;3.80;;
3819;SDS011;1925;51.356;9.530;2022-10-22T08:06:10;4.43;;;3.60;;
3819;SDS011;1925;51.356;9.530;2022-10-22T08:08:37;6.63;;;3.42;;
3819;SDS011;1925;51.356;9.530;2022-10-22T08:11:03;5.13;;;3.03;;
3819;SDS011;1925;51.356;9.530;2022-10-22T08:13:29;4.23;;;2.33;;
3819;SDS011;1925;51.356;9.530;2022-10-22T08:15:57;4.10;;;2.67;;
3819;SDS011;1925;51.356;9.530;2022-10-22T08:18:23;5.67;;;2.47;;
3819;SDS011;1925;51.356;9.530;2022-10-22T08:20:49;4.40;;;2.80;;
3819;SDS011;1925;51.356;9.530;2022-10-22T08:23:15;2.97;;;2.60;;
3819;SDS011;1925;51.356;9.530;2022-10-22T08:25:41;4.00;;;2.60;;
3819;SDS011;1925;51.356;9.530;2022-10-22T08:28:07;2.80;;;2.27;;
3819;SDS011;1925;51.356;9.530;2022-10-22T08:30:33;3.10;;;2.90;;
3819;SDS011;1925;51.356;9.530;2022-10-22T08:33:02;6.23;;;3.17;;
3819;SDS011;1925;51.356;9.530;2022-10-22T08:35:28;3.47;;;2.63;;
3819;SDS011;1925;51.356;9.530;2022-10-22T08:37:54;8.70;;;3.47;;
3819;SDS011;1925;51.356;9.530;2022-10-22T08:40:22;4.33;;;3.30;;
3819;SDS011;1925;51.356;9.530;2022-10-22T08:42:59;6.00;;;3.17;;
3819;SDS011;1925;51.356;9.530;2022-10-22T08:45:34;6.23;;;3.23;;
3819;SDS011;1925;51.356;9.530;2022-10-22T08:48:11;5.80;;;3.30;;
3819;SDS011;1925;51.356;9.530;2022-10-22T08:50:44;6.83;;;2.83;;
3819;SDS011;1925;51.356;9.530;2022-10-22T08:53:20;4.70;;;3.57;;
3819;SDS011;1925;51.356;9.530;2022-10-22T08:55:48;4.87;;;3.50;;
3819;SDS011;1925;51.356;9.530;2022-10-22T09:08:19;4.13;;;3.40;;
3819;SDS011;1925;51.356;9.530;2022-10-22T09:10:47;5.67;;;4.10;;
3819;SDS011;1925;51.356;9.530;2022-10-22T09:13:15;6.67;;;3.63;;
3819;SDS011;1925;51.356;9.530;2022-10-22T09:15:43;5.63;;;4.73;;
3819;SDS011;1925;51.356;9.530;2022-10-22T09:18:14;6.53;;;3.80;;
3819;SDS011;1925;51.356;9.530;2022-10-22T09:20:47;5.20;;;3.57;;
3819;SDS011;1925;51.356;9.530;2022-10-22T09:23:25;7.60;;;4.10;;
3819;SDS011;1925;51.356;9.530;2022-10-22T09:25:54;7.60;;;4.50;;
3819;SDS011;1925;51.356;9.530;2022-10-22T09:28:20;15.53;;;4.47;;
3819;SDS011;1925;51.356;9.530;2022-10-22T09:30:46;5.67;;;5.17;;
3819;SDS011;1925;51.356;9.530;2022-10-22T09:33:14;7.47;;;4.33;;
3819;SDS011;1925;51.356;9.530;2022-10-22T09:35:47;6.37;;;4.77;;
3819;SDS011;1925;51.356;9.530;2022-10-22T09:38:16;9.00;;;4.60;;
3819;SDS011;1925;51.356;9.530;2022-10-22T09:40:47;9.03;;;4.50;;
3819;SDS011;1925;51.356;9.530;2022-10-22T09:43:13;6.37;;;4.53;;
3819;SDS011;1925;51.356;9.530;2022-10-22T09:45:40;5.63;;;4.50;;
3819;SDS011;1925;51.356;9.530;2022-10-22T09:48:10;5.80;;;4.10;;
3819;SDS011;1925;51.356;9.530;2022-10-22T09:50:38;5.80;;;4.30;;
3819;SDS011;1925;51.356;9.530;2022-10-22T09:55:37;6.67;;;3.97;;
3819;SDS011;1925;51.356;9.530;2022-10-22T09:58:03;5.83;;;4.80;;
3819;SDS011;1925;51.356;9.530;2022-10-22T10:00:29;4.63;;;3.90;;
3819;SDS011;1925;51.356;9.530;2022-10-22T10:02:56;5.70;;;4.07;;
3819;SDS011;1925;51.356;9.530;2022-10-22T10:05:30;5.63;;;4.37;;
3819;SDS011;1925;51.356;9.530;2022-10-22T10:07:57;7.47;;;5.07;;
3819;SDS011;1925;51.356;9.530;2022-10-22T10:10:37;5.73;;;4.60;;
3819;SDS011;1925;51.356;9.530;2022-10-22T10:13:10;5.10;;;4.03;;
3819;SDS011;1925;51.356;9.530;2022-10-22T10:20:57;7.43;;;3.87;;
3819;SDS011;1925;51.356;9.530;2022-10-22T10:28:33;4.93;;;3.93;;
3819;SDS011;1925;51.356;9.530;2022-10-22T10:33:48;5.90;;;4.43;;
3819;SDS011;1925;51.356;9.530;2022-10-22T10:36:26;5.30;;;4.10;;
3819;SDS011;1925;51.356;9.530;2022-10-22T10:39:02;8.43;;;4.47;;
3819;SDS011;1925;51.356;9.530;2022-10-22T10:41:37;4.80;;;4.07;;
3819;SDS011;1925;51.356;9.530;2022-10-22T10:49:23;8.20;;;3.73;;
3819;SDS011;1925;51.356;9.530;2022-10-22T10:59:30;5.20;;;2.70;;
3819;SDS011;1925;51.356;9.530;2022-10-22T11:02:30;11.00;;;3.27;;
3819;SDS011;1925;51.356;9.530;2022-10-22T11:05:06;7.37;;;2.30;;
3819;SDS011;1925;51.356;9.530;2022-10-22T11:07:41;7.17;;;2.70;;
3819;SDS011;1925;51.356;9.530;2022-10-22T11:10:18;7.67;;;2.70;;
3819;SDS011;1925;51.356;9.530;2022-10-22T11:12:48;4.33;;;2.17;;
3819;SDS011;1925;51.356;9.530;2022-10-22T11:15:31;7.90;;;2.93;;
3819;SDS011;1925;51.356;9.530;2022-10-22T11:18:07;4.13;;;2.97;;
3819;SDS011;1925;51.356;9.530;2022-10-22T11:20:40;6.80;;;2.93;;
3819;SDS011;1925;51.356;9.530;2022-10-22T11:23:11;8.13;;;2.40;;
3819;SDS011;1925;51.356;9.530;2022-10-22T11:25:46;3.40;;;2.17;;
3819;SDS011;1925;51.356;9.530;2022-10-22T11:30:42;4.97;;;2.10;;
3819;SDS011;1925;51.356;9.530;2022-10-22T11:33:10;8.03;;;2.10;;
3819;SDS011;1925;51.356;9.530;2022-10-22T11:35:40;5.93;;;2.27;;
3819;SDS011;1925;51.356;9.530;2022-10-22T11:38:07;8.80;;;2.70;;
3819;SDS011;1925;51.356;9.530;2022-10-22T11:40:42;3.30;;;2.03;;
3819;SDS011;1925;51.356;9.530;2022-10-22T11:43:25;4.30;;;2.10;;
3819;SDS011;1925;51.356;9.530;2022-10-22T11:45:55;6.57;;;2.47;;
3819;SDS011;1925;51.356;9.530;2022-10-22T11:48:22;2.90;;;2.10;;
3819;SDS011;1925;51.356;9.530;2022-10-22T11:50:58;9.07;;;2.67;;
3819;SDS011;1925;51.356;9.530;2022-10-22T11:55:52;4.53;;;1.87;;
3819;SDS011;1925;51.356;9.530;2022-10-22T12:00:56;8.07;;;2.33;;
3819;SDS011;1925;51.356;9.530;2022-10-22T12:03:36;5.10;;;1.70;;
3819;SDS011;1925;51.356;9.530;2022-10-22T12:08:51;12.07;;;2.77;;
3819;SDS011;1925;51.356;9.530;2022-10-22T12:16:54;4.67;;;1.80;;
3819;SDS011;1925;51.356;9.530;2022-10-22T12:21:48;6.37;;;2.10;;
3819;SDS011;1925;51.356;9.530;2022-10-22T12:24:18;8.50;;;2.20;;
3819;SDS011;1925;51.356;9.530;2022-10-22T12:26:44;5.73;;;2.00;;
3819;SDS011;1925;51.356;9.530;2022-10-22T12:29:12;3.50;;;1.83;;
3819;SDS011;1925;51.356;9.530;2022-10-22T12:31:39;6.00;;;2.23;;
3819;SDS011;1925;51.356;9.530;2022-10-22T12:34:06;7.13;;;1.90;;
3819;SDS011;1925;51.356;9.530;2022-10-22T12:36:36;8.17;;;3.60;;
3819;SDS011;1925;51.356;9.530;2022-10-22T12:39:11;2.13;;;1.90;;
3819;SDS011;1925;51.356;9.530;2022-10-22T12:41:37;2.83;;;1.73;;
3819;SDS011;1925;51.356;9.530;2022-10-22T12:44:04;10.80;;;2.00;;
3819;SDS011;1925;51.356;9.530;2022-10-22T12:46:31;2.57;;;1.60;;
3819;SDS011;1925;51.356;9.530;2022-10-22T12:48:58;6.63;;;2.23;;
3819;SDS011;1925;51.356;9.530;2022-10-22T12:51:25;2.20;;;1.67;;
3819;SDS011;1925;51.356;9.530;2022-10-22T12:53:52;2.60;;;1.30;;
3819;SDS011;1925;51.356;9.530;2022-10-22T12:56:22;6.40;;;1.80;;
3819;SDS011;1925;51.356;9.530;2022-10-22T12:58:54;5.97;;;1.43;;
3819;SDS011;1925;51.356;9.530;2022-10-22T13:01:21;3.60;;;1.40;;
3819;SDS011;1925;51.356;9.530;2022-10-22T13:03:50;9.90;;;1.70;;
3819;SDS011;1925;51.356;9.530;2022-10-22T13:08:44;8.20;;;1.43;;
3819;SDS011;1925;51.356;9.530;2022-10-22T13:11:10;8.90;;;1.63;;
3819;SDS011;1925;51.356;9.530;2022-10-22T13:16:16;3.03;;;1.07;;
3819;SDS011;1925;51.356;9.530;2022-10-22T13:18:43;5.73;;;1.07;;
3819;SDS011;1925;51.356;9.530;2022-10-22T13:21:20;3.87;;;1.73;;
3819;SDS011;1925;51.356;9.530;2022-10-22T13:23:51;2.50;;;1.13;;
3819;SDS011;1925;51.356;9.530;2022-10-22T13:26:17;1.90;;;1.30;;
3819;SDS011;1925;51.356;9.530;2022-10-22T13:28:53;2.23;;;1.40;;
3819;SDS011;1925;51.356;9.530;2022-10-22T13:31:22;3.87;;;1.47;;
3819;SDS011;1925;51.356;9.530;2022-10-22T13:33:52;3.57;;;1.60;;
3819;SDS011;1925;51.356;9.530;2022-10-22T13:36:19;5.20;;;1.73;;
3819;SDS011;1925;51.356;9.530;2022-10-22T13:38:46;3.83;;;1.77;;
3819;SDS011;1925;51.356;9.530;2022-10-22T13:43:44;5.73;;;1.90;;
3819;SDS011;1925;51.356;9.530;2022-10-22T13:46:10;4.40;;;1.30;;
3819;SDS011;1925;51.356;9.530;2022-10-22T13:48:36;4.30;;;0.93;;
3819;SDS011;1925;51.356;9.530;2022-10-22T13:51:03;4.50;;;1.20;;
3819;SDS011;1925;51.356;9.530;2022-10-22T13:53:29;6.13;;;1.10;;
3819;SDS011;1925;51.356;9.530;2022-10-22T13:55:55;2.33;;;1.00;;
3819;SDS011;1925;51.356;9.530;2022-10-22T13:58:22;6.93;;;1.47;;
3819;SDS011;1925;51.356;9.530;2022-10-22T14:00:56;1.80;;;1.30;;
3819;SDS011;1925;51.356;9.530;2022-10-22T14:03:24;3.70;;;1.63;;
3819;SDS011;1925;51.356;9.530;2022-10-22T14:05:50;6.10;;;1.30;;
3819;SDS011;1925;51.356;9.530;2022-10-22T14:08:19;6.83;;;1.53;;
3819;SDS011;1925;51.356;9.530;2022-10-22T14:10:47;2.80;;;1.03;;
3819;SDS011;1925;51.356;9.530;2022-10-22T14:13:14;4.13;;;1.87;;
3819;SDS011;1925;51.356;9.530;2022-10-22T14:15:41;2.70;;;1.53;;
3819;SDS011;1925;51.356;9.530;2022-10-22T14:18:07;3.77;;;1.30;;
3819;SDS011;1925;51.356;9.530;2022-10-22T14:20:36;8.07;;;1.60;;
3819;SDS011;1925;51.356;9.530;2022-10-22T14:23:11;3.83;;;1.43;;
3819;SDS011;1925;51.356;9.530;2022-10-22T14:25:37;5.93;;;1.73;;
3819;SDS011;1925;51.356;9.530;2022-10-22T14:28:04;6.00;;;1.60;;
3819;SDS011;1925;51.356;9.530;2022-10-22T14:30:34;2.63;;;1.20;;
3819;SDS011;1925;51.356;9.530;2022-10-22T14:33:00;5.00;;;1.27;;
3819;SDS011;1925;51.356;9.530;2022-10-22T14:35:26;2.53;;;1.20;;
3819;SDS011;1925;51.356;9.530;2022-10-22T14:37:53;2.80;;;0.90;;
3819;SDS011;1925;51.356;9.530;2022-10-22T14:40:22;4.70;;;1.83;;
3819;SDS011;1925;51.356;9.530;2022-10-22T14:42:48;3.30;;;1.10;;
3819;SDS011;1925;51.356;9.530;2022-10-22T14:45:17;2.43;;;1.20;;
3819;SDS011;1925;51.356;9.530;2022-10-22T14:47:44;2.40;;;1.17;;
3819;SDS011;1925;51.356;9.530;2022-10-22T14:50:10;5.53;;;1.10;;
3819;SDS011;1925;51.356;9.530;2022-10-22T14:52:36;2.10;;;1.10;;
3819;SDS011;1925;51.356;9.530;2022-10-22T14:55:02;3.60;;;1.63;;
3819;SDS011;1925;51.356;9.530;2022-10-22T14:57:28;4.97;;;1.57;;
3819;SDS011;1925;51.356;9.530;2022-10-22T14:59:54;3.47;;;1.27;;
3819;SDS011;1925;51.356;9.530;2022-10-22T15:02:20;3.03;;;1.30;;
3819;SDS011;1925;51.356;9.530;2022-10-22T15:04:47;4.63;;;1.20;;
3819;SDS011;1925;51.356;9.530;2022-10-22T15:07:14;6.63;;;1.80;;
3819;SDS011;1925;51.356;9.530;2022-10-22T15:09:40;3.00;;;1.17;;
3819;SDS011;1925;51.356;9.530;2022-10-22T15:12:06;4.47;;;1.47;;
3819;SDS011;1925;51.356;9.530;2022-10-22T15:14:32;5.80;;;1.53;;
3819;SDS011;1925;51.356;9.530;2022-10-22T15:16:59;5.60;;;1.73;;
3819;SDS011;1925;51.356;9.530;2022-10-22T15:19:28;3.63;;;1.80;;
3819;SDS011;1925;51.356;9.530;2022-10-22T15:21:54;2.63;;;1.40;;
3819;SDS011;1925;51.356;9.530;2022-10-22T15:24:20;3.80;;;1.43;;
3819;SDS011;1925;51.356;9.530;2022-10-22T15:26:46;4.30;;;1.70;;
3819;SDS011;1925;51.356;9.530;2022-10-22T15:29:12;4.20;;;1.50;;
3819;SDS011;1925;51.356;9.530;2022-10-22T15:31:48;4.33;;;2.10;;
3819;SDS011;1925;51.356;9.530;2022-10-22T15:34:25;7.80;;;2.70;;
3819;SDS011;1925;51.356;9.530;2022-10-22T15:36:55;4.20;;;1.90;;
3819;SDS011;1925;51.356;9.530;2022-10-22T15:39:22;5.30;;;2.00;;
3819;SDS011;1925;51.356;9.530;2022-10-22T15:41:48;3.23;;;1.60;;
3819;SDS011;1925;51.356;9.530;2022-10-22T15:44:16;3.33;;;1.40;;
3819;SDS011;1925;51.356;9.530;2022-10-22T15:46:42;15.30;;;1.87;;
3819;SDS011;1925;51.356;9.530;2022-10-22T15:49:08;3.80;;;2.07;;
3819;SDS011;1925;51.356;9.530;2022-10-22T15:51:34;3.37;;;1.50;;
3819;SDS011;1925;51.356;9.530;2022-10-22T15:54:00;6.63;;;1.60;;
3819;SDS011;1925;51.356;9.530;2022-10-22T15:56:27;5.20;;;1.40;;
3819;SDS011;1925;51.356;9.530;2022-10-22T15:58:54;3.47;;;1.90;;
3819;SDS011;1925;51.356;9.530;2022-10-22T16:01:20;4.07;;;1.70;;
3819;SDS011;1925;51.356;9.530;2022-10-22T16:03:46;4.10;;;1.83;;
3819;SDS011;1925;51.356;9.530;2022-10-22T16:06:16;4.80;;;1.97;;
3819;SDS011;1925;51.356;9.530;2022-10-22T16:08:42;7.43;;;1.97;;
3819;SDS011;1925;51.356;9.530;2022-10-22T16:11:08;2.73;;;1.67;;
3819;SDS011;1925;51.356;9.530;2022-10-22T16:13:34;4.10;;;1.57;;
3819;SDS011;1925;51.356;9.530;2022-10-22T16:16:03;2.37;;;2.17;;
3819;SDS011;1925;51.356;9.530;2022-10-22T16:18:30;4.50;;;2.73;;
3819;SDS011;1925;51.356;9.530;2022-10-22T16:20:56;6.60;;;3.10;;
3819;SDS011;1925;51.356;9.530;2022-10-22T16:23:23;46.60;;;41.73;;
3819;SDS011;1925;51.356;9.530;2022-10-22T16:25:49;6.17;;;3.20;;
3819;SDS011;1925;51.356;9.530;2022-10-22T16:28:17;3.40;;;1.80;;
3819;SDS011;1925;51.356;9.530;2022-10-22T16:30:44;3.07;;;1.70;;
3819;SDS011;1925;51.356;9.530;2022-10-22T16:33:10;4.70;;;1.80;;
3819;SDS011;1925;51.356;9.530;2022-10-22T16:35:39;6.70;;;2.17;;
3819;SDS011;1925;51.356;9.530;2022-10-22T16:38:06;6.73;;;1.70;;